Startpagina
METAR-TAF:

METAR-TAF

Vliegvelden :

Baker Municipal Airport

Baker, Montana, Verenigde Staten

breedte: 46-20-52N, lengte: 104-15-27W, hoogte: 905 m

Actueel weer

Dit bericht is 36 minuten geleden gemaakt, om 06:51 UTC
Wind 7 kt uit het zuidwesten
Temperatuur 3°C
Vochtigheid 65%
Druk 1013 hPa
Zicht: 16.1 km
Onbewolkt

METAR: KBHK 070651Z AUTO 22007KT 10SM CLR 03/M03 A2992 RMK AO2 SLP146 T00331028 400721078

Tijdstip: 00:27 (07:27 UTC)


TAF: ontbreekt

Waarnemingen en weersverwachtingen van meer dan 4000 vliegvelden (METAR en TAF).

De beschikbare stations zijn de gele en rode punten op de kaart.

Ga met uw muis naar het station om de naam te zien.

Klik dan om waarnemingen en weersverwachtingen te zien.

kaart wijzigen: klik op de groene knoppen met een zwart kruis om in te zoomen, op de groene knop met een streepje om uit te zoomen of op de groene pijlen voor aangrenzende kaarten.


METAR-TAF: